Time;durP1;ratioP1;P1;durP2;ratioP2;P2;SDS_P1;SDS_P2;PMS_P1;PMS_P2;Temp;Humidity;BMP_temperature;BMP_pressure;BME280_temperature;BME280_humidity;BME280_pressure;Samples;Min_cycle;Max_cycle;Signal;HPM_P1;HPM_P2
2022/07/14 00:01:24;;;;;;;1.45;0.50;;;25.60;43.10;;;;;;5085259;28;20052;-61
2022/07/14 00:03:51;;;;;;;0.20;0.20;;;25.60;43.10;;;;;;5084506;28;20044;-61
2022/07/14 00:06:18;;;;;;;1.25;0.10;;;25.60;43.20;;;;;;5085912;28;20056;-61
2022/07/14 00:08:45;;;;;;;0.30;0.10;;;25.60;43.20;;;;;;5080270;28;20520;-61
2022/07/14 00:11:12;;;;;;;0.13;0.13;;;25.60;43.20;;;;;;5086853;28;20124;-61
2022/07/14 00:13:39;;;;;;;0.10;0.10;;;25.50;43.20;;;;;;5089322;28;20047;-61
2022/07/14 00:16:07;;;;;;;0.20;0.20;;;25.60;43.30;;;;;;5088968;28;20612;-61
2022/07/14 00:18:34;;;;;;;0.10;0.10;;;25.50;43.20;;;;;;5089473;28;20040;-61
2022/07/14 00:21:01;;;;;;;0.13;0.10;;;25.50;43.20;;;;;;5087521;28;20051;-61
2022/07/14 00:23:29;;;;;;;0.10;0.10;;;25.50;43.20;;;;;;5089135;28;20271;-61
2022/07/14 00:25:56;;;;;;;0.22;0.10;;;25.50;43.20;;;;;;5088232;28;20040;-61
2022/07/14 00:28:23;;;;;;;0.10;0.10;;;25.50;43.20;;;;;;5088731;28;20083;-61
2022/07/14 00:30:52;;;;;;;0.10;0.10;;;25.60;43.30;;;;;;5088178;28;20044;-61
2022/07/14 00:33:19;;;;;;;0.15;0.15;;;25.50;43.20;;;;;;5088850;28;20079;-61
2022/07/14 00:35:46;;;;;;;0.10;0.10;;;25.50;43.20;;;;;;5089514;28;20048;-61
2022/07/14 00:38:13;;;;;;;0.20;0.20;;;25.50;43.20;;;;;;5089076;28;20075;-61
2022/07/14 00:40:40;;;;;;;0.20;0.20;;;25.50;43.20;;;;;;5083939;28;20139;-61
2022/07/14 00:43:08;;;;;;;0.20;0.20;;;25.50;43.20;;;;;;5089458;28;20040;-61
2022/07/14 00:45:35;;;;;;;0.57;0.25;;;25.50;43.20;;;;;;5088188;28;20106;-61
2022/07/14 00:48:02;;;;;;;0.17;0.17;;;25.50;43.20;;;;;;5088540;28;20059;-61
2022/07/14 00:50:29;;;;;;;0.10;0.10;;;25.50;43.30;;;;;;5086762;28;20216;-61
2022/07/14 00:52:57;;;;;;;0.28;0.10;;;25.50;43.20;;;;;;5088012;28;20052;-61
2022/07/14 00:55:24;;;;;;;0.20;0.10;;;25.50;43.20;;;;;;5088748;28;20477;-61
2022/07/14 00:57:52;;;;;;;0.30;0.30;;;25.50;43.20;;;;;;5088252;28;20565;-61
2022/07/14 01:00:19;;;;;;;2.55;0.20;;;25.50;43.30;;;;;;5088385;28;20045;-61
2022/07/14 01:02:47;;;;;;;0.10;0.10;;;25.50;43.30;;;;;;5088461;28;20044;-61
2022/07/14 01:05:14;;;;;;;0.28;0.20;;;25.50;43.30;;;;;;5088518;28;20040;-61
2022/07/14 01:07:41;;;;;;;0.10;0.10;;;25.50;43.40;;;;;;5088606;28;20116;-61
2022/07/14 01:10:09;;;;;;;0.30;0.22;;;25.50;43.40;;;;;;5086284;28;20492;-61
2022/07/14 01:12:38;;;;;;;0.20;0.20;;;25.50;43.40;;;;;;5083747;28;20073;-62
2022/07/14 01:15:06;;;;;;;0.20;0.20;;;25.50;43.40;;;;;;5088421;28;20177;-61
2022/07/14 01:17:33;;;;;;;0.10;0.10;;;25.50;43.40;;;;;;5087438;28;20052;-61
2022/07/14 01:20:00;;;;;;;0.10;0.10;;;25.50;43.50;;;;;;5088288;28;20048;-61
2022/07/14 01:22:28;;;;;;;0.10;0.10;;;25.40;43.40;;;;;;5086000;28;20496;-61
2022/07/14 01:24:55;;;;;;;0.10;0.10;;;25.40;43.40;;;;;;5088170;28;20052;-61
2022/07/14 01:27:22;;;;;;;0.40;0.30;;;25.40;43.40;;;;;;5088213;28;20051;-61
2022/07/14 01:29:49;;;;;;;0.10;0.10;;;25.40;43.50;;;;;;5087741;28;20450;-61
2022/07/14 01:32:17;;;;;;;0.10;0.10;;;25.40;43.50;;;;;;5087961;28;20626;-61
2022/07/14 01:34:44;;;;;;;0.10;0.10;;;25.40;43.50;;;;;;5087045;28;20728;-61
2022/07/14 01:37:11;;;;;;;0.30;0.25;;;25.40;43.50;;;;;;5088171;28;20048;-61
2022/07/14 01:39:39;;;;;;;0.20;0.15;;;25.40;43.50;;;;;;5086984;28;20101;-61
2022/07/14 01:42:06;;;;;;;0.20;0.20;;;25.40;43.50;;;;;;5084259;28;20545;-61
2022/07/14 01:44:33;;;;;;;0.10;0.10;;;25.40;43.50;;;;;;5084918;28;20044;-61
2022/07/14 01:47:00;;;;;;;0.10;0.10;;;25.40;43.50;;;;;;5087184;28;20470;-61
2022/07/14 01:49:28;;;;;;;0.10;0.10;;;25.40;43.50;;;;;;5087395;28;20059;-61
2022/07/14 01:51:55;;;;;;;0.20;0.20;;;25.40;43.60;;;;;;5087429;28;20051;-61
2022/07/14 01:54:24;;;;;;;0.10;0.10;;;25.40;43.60;;;;;;5087329;28;20565;-61
2022/07/14 01:56:52;;;;;;;0.10;0.10;;;25.40;43.60;;;;;;5087683;28;20044;-61
2022/07/14 01:59:19;;;;;;;0.15;0.15;;;25.40;43.60;;;;;;5087183;28;20066;-61
2022/07/14 02:01:46;;;;;;;0.80;0.20;;;25.40;43.60;;;;;;5087253;28;20105;-61
2022/07/14 02:04:16;;;;;;;0.40;0.40;;;25.40;43.60;;;;;;5086523;28;20051;-61
2022/07/14 02:06:49;;;;;;;0.30;0.10;;;25.40;43.60;;;;;;5069250;28;20078;-61
2022/07/14 02:09:18;;;;;;;0.43;0.15;;;25.40;43.60;;;;;;5087413;28;20625;-61
2022/07/14 02:14:33;;;;;;;0.20;0.20;;;25.40;43.60;;;;;;5082554;28;20074;-61
2022/07/14 02:17:01;;;;;;;0.20;0.20;;;25.40;43.60;;;;;;5086216;28;20220;-61
2022/07/14 02:19:28;;;;;;;0.20;0.20;;;25.40;43.60;;;;;;5087225;28;20043;-61
2022/07/14 02:21:55;;;;;;;0.10;0.10;;;25.40;43.60;;;;;;5086763;28;20565;-61
2022/07/14 02:24:23;;;;;;;0.28;0.28;;;25.40;43.60;;;;;;5086669;28;20101;-61
2022/07/14 02:26:51;;;;;;;0.10;0.10;;;25.40;43.60;;;;;;5086684;28;20047;-61
2022/07/14 02:29:19;;;;;;;0.10;0.10;;;25.40;43.70;;;;;;5084629;28;20304;-61
2022/07/14 02:31:46;;;;;;;0.10;0.10;;;25.40;43.70;;;;;;5086236;28;20167;-61
2022/07/14 02:34:15;;;;;;;0.73;0.10;;;25.40;43.70;;;;;;5085905;28;20131;-61
2022/07/14 02:36:43;;;;;;;0.20;0.20;;;25.40;43.70;;;;;;5086497;28;20044;-61
2022/07/14 02:39:12;;;;;;;0.10;0.10;;;25.40;43.70;;;;;;5087012;28;20169;-61
2022/07/14 02:41:40;;;;;;;0.20;0.20;;;25.40;43.70;;;;;;5086186;28;20118;-61
2022/07/14 02:44:08;;;;;;;0.43;0.10;;;25.40;43.70;;;;;;5085494;28;20044;-61
2022/07/14 02:46:37;;;;;;;0.08;0.08;;;25.40;43.70;;;;;;5081205;28;20136;-61
2022/07/14 02:49:05;;;;;;;0.20;0.20;;;25.40;43.70;;;;;;5086191;28;20040;-60
2022/07/14 02:51:33;;;;;;;0.20;0.10;;;25.40;43.80;;;;;;5086446;28;20055;-61
2022/07/14 02:54:00;;;;;;;0.10;0.10;;;25.40;43.80;;;;;;5085902;28;20075;-61
2022/07/14 02:56:28;;;;;;;0.10;0.10;;;25.30;43.70;;;;;;5086522;28;20048;-61
2022/07/14 02:58:56;;;;;;;0.10;0.10;;;25.40;43.80;;;;;;5086243;28;20051;-61
2022/07/14 03:01:23;;;;;;;0.10;0.10;;;25.30;43.70;;;;;;5085807;28;20051;-61
2022/07/14 03:03:50;;;;;;;0.20;0.20;;;25.30;43.70;;;;;;5086180;28;20500;-61
2022/07/14 03:06:19;;;;;;;0.00;0.00;;;25.40;43.80;;;;;;5083977;28;20527;-61
2022/07/14 03:08:46;;;;;;;0.25;0.20;;;25.30;43.70;;;;;;5084838;28;20083;-61
2022/07/14 03:11:14;;;;;;;0.43;0.43;;;25.30;43.70;;;;;;5085814;28;20040;-61
2022/07/14 03:13:41;;;;;;;0.20;0.20;;;25.30;43.80;;;;;;5085569;28;20044;-61
2022/07/14 03:16:09;;;;;;;0.10;0.10;;;25.30;43.80;;;;;;5086240;28;20109;-61
2022/07/14 03:18:39;;;;;;;0.20;0.20;;;25.30;43.80;;;;;;5080683;28;20489;-61
2022/07/14 03:21:08;;;;;;;0.47;0.20;;;25.30;43.80;;;;;;5086153;28;20052;-61
2022/07/14 03:23:36;;;;;;;1.43;0.20;;;25.30;43.80;;;;;;5084687;28;20044;-61
2022/07/14 03:26:04;;;;;;;0.20;0.20;;;25.30;43.80;;;;;;5085667;28;20442;-60
2022/07/14 03:28:31;;;;;;;0.10;0.10;;;25.30;43.80;;;;;;5085570;28;20329;-61
2022/07/14 03:30:59;;;;;;;0.10;0.10;;;25.30;43.80;;;;;;5083752;28;20192;-62
2022/07/14 03:33:26;;;;;;;0.10;0.10;;;25.30;43.80;;;;;;5084117;28;20177;-61
2022/07/14 03:35:54;;;;;;;0.25;0.10;;;25.30;43.80;;;;;;5084101;28;20118;-61
2022/07/14 03:38:21;;;;;;;0.10;0.10;;;25.40;43.90;;;;;;5084239;28;20059;-61
2022/07/14 03:41:03;;;;;;;0.10;0.10;;;25.40;43.80;;;;;;5083847;28;20050;-61
2022/07/14 03:43:31;;;;;;;0.20;0.20;;;25.40;43.80;;;;;;5084917;28;20433;-61
2022/07/14 03:45:59;;;;;;;0.00;0.00;;;25.40;43.80;;;;;;5085736;28;20040;-61
2022/07/14 03:48:26;;;;;;;0.10;0.10;;;25.40;43.80;;;;;;5082795;28;20056;-61
2022/07/14 03:50:53;;;;;;;0.20;0.20;;;25.40;43.70;;;;;;5083532;28;20552;-61
2022/07/14 03:53:21;;;;;;;0.17;0.10;;;25.40;43.70;;;;;;5083094;28;20055;-61
2022/07/14 03:55:49;;;;;;;0.10;0.10;;;25.40;43.70;;;;;;5084032;28;20083;-61
2022/07/14 03:58:19;;;;;;;0.10;0.10;;;25.50;43.70;;;;;;5085284;28;20420;-61
2022/07/14 04:00:47;;;;;;;0.10;0.10;;;25.50;43.70;;;;;;5085027;28;20512;-61
2022/07/14 04:03:15;;;;;;;0.10;0.10;;;25.50;43.60;;;;;;5085285;28;20129;-61
2022/07/14 04:05:43;;;;;;;0.13;0.13;;;25.50;43.60;;;;;;5083788;28;20059;-61
2022/07/14 04:08:10;;;;;;;0.20;0.20;;;25.50;43.50;;;;;;5083660;28;20478;-61
2022/07/14 04:10:38;;;;;;;0.30;0.10;;;25.50;43.50;;;;;;5085333;28;20094;-61
2022/07/14 04:13:05;;;;;;;0.10;0.10;;;25.50;43.50;;;;;;5083333;28;20044;-62
2022/07/14 04:15:32;;;;;;;0.63;0.25;;;25.50;43.50;;;;;;5084974;28;20044;-61
2022/07/14 04:17:59;;;;;;;0.20;0.20;;;25.60;43.50;;;;;;5085056;28;20048;-61
2022/07/14 04:20:27;;;;;;;0.10;0.10;;;25.60;43.50;;;;;;5080606;28;20592;-61
2022/07/14 04:22:54;;;;;;;0.10;0.10;;;25.60;43.50;;;;;;5084952;28;20070;-61
2022/07/14 04:25:21;;;;;;;0.10;0.10;;;25.60;43.40;;;;;;5084122;28;20105;-61
2022/07/14 04:27:48;;;;;;;0.10;0.10;;;25.60;43.40;;;;;;5085199;28;20394;-61
2022/07/14 04:30:15;;;;;;;0.30;0.30;;;25.60;43.40;;;;;;5084532;28;20444;-61
2022/07/14 04:32:43;;;;;;;0.15;0.15;;;25.60;43.30;;;;;;5084523;28;20044;-60
2022/07/14 04:35:10;;;;;;;0.15;0.15;;;25.60;43.30;;;;;;5083349;28;20282;-61
2022/07/14 04:37:38;;;;;;;0.10;0.10;;;25.70;43.40;;;;;;5084785;28;20044;-61
2022/07/14 04:40:06;;;;;;;0.32;0.20;;;25.70;43.40;;;;;;5083523;28;20632;-61
2022/07/14 04:42:33;;;;;;;0.10;0.10;;;25.70;43.30;;;;;;5082839;28;20056;-61
2022/07/14 04:45:00;;;;;;;0.10;0.10;;;25.70;43.30;;;;;;5085043;28;20105;-61
2022/07/14 04:47:28;;;;;;;0.20;0.20;;;25.70;43.30;;;;;;5084269;28;20416;-61
2022/07/14 04:52:47;;;;;;;0.20;0.20;;;25.80;43.20;;;;;;5078764;28;20121;-61
2022/07/14 04:55:15;;;;;;;0.30;0.10;;;25.90;43.80;;;;;;5084317;28;20052;-61
2022/07/14 04:57:43;;;;;;;0.10;0.10;;;25.80;43.10;;;;;;5087290;28;20077;-61
2022/07/14 05:00:11;;;;;;;0.10;0.10;;;25.80;43.10;;;;;;5088326;28;20416;-61
2022/07/14 05:02:39;;;;;;;0.20;0.20;;;25.80;43.00;;;;;;5087742;28;20498;-61
2022/07/14 05:05:07;;;;;;;0.10;0.10;;;25.90;43.10;;;;;;5088295;28;20500;-61
2022/07/14 05:07:34;;;;;;;0.30;0.30;;;25.90;43.10;;;;;;5088058;28;20492;-61
2022/07/14 05:10:02;;;;;;;0.40;0.40;;;25.90;43.20;;;;;;5088038;28;20040;-61
2022/07/14 05:12:30;;;;;;;0.47;0.35;;;25.80;43.40;;;;;;5088401;28;20478;-61
2022/07/14 05:14:57;;;;;;;1.15;0.30;;;25.70;43.40;;;;;;5087680;28;20178;-61
2022/07/14 05:17:25;;;;;;;0.40;0.40;;;25.60;43.80;;;;;;5090046;28;20051;-64
2022/07/14 05:19:52;;;;;;;1.42;0.85;;;25.40;44.20;;;;;;5088908;28;20051;-72
2022/07/14 05:22:21;;;;;;;5.63;1.27;;;25.10;45.00;;;;;;5069770;28;20052;-71
2022/07/14 05:24:48;;;;;;;2.67;1.33;;;24.80;45.70;;;;;;5073085;28;20557;-71
2022/07/14 05:27:15;;;;;;;2.65;1.42;;;24.50;46.40;;;;;;5080854;28;20063;-72
2022/07/14 05:29:42;;;;;;;2.70;1.83;;;24.20;46.70;;;;;;5082986;28;20074;-70
2022/07/14 05:32:10;;;;;;;5.03;1.42;;;23.90;46.70;;;;;;5083415;28;20052;-66
2022/07/14 05:34:42;;;;;;;5.93;1.60;;;23.60;47.10;;;;;;5080639;28;20056;-72
2022/07/14 05:37:11;;;;;;;1.63;1.52;;;23.40;47.30;;;;;;5077479;28;20093;-72
2022/07/14 05:39:38;;;;;;;3.65;1.67;;;23.20;47.30;;;;;;5078921;28;20048;-74
2022/07/14 05:42:06;;;;;;;1.95;1.40;;;23.00;47.00;;;;;;5072470;28;20520;-73
2022/07/14 05:44:35;;;;;;;8.02;2.25;;;22.70;47.40;;;;;;5074855;28;20097;-72
2022/07/14 05:47:02;;;;;;;1.40;1.30;;;22.60;47.70;;;;;;5074226;28;20484;-73
2022/07/14 05:49:30;;;;;;;2.60;1.23;;;22.40;48.00;;;;;;5078011;28;20047;-74
2022/07/14 05:51:57;;;;;;;4.18;1.60;;;22.20;49.40;;;;;;5076457;28;20047;-72
2022/07/14 05:54:24;;;;;;;4.97;2.17;;;22.10;49.70;;;;;;5071531;28;20499;-73
2022/07/14 05:56:52;;;;;;;2.10;1.90;;;22.10;49.60;;;;;;5073588;28;20074;-74
2022/07/14 05:59:20;;;;;;;1.70;1.60;;;22.00;50.90;;;;;;5078937;28;20127;-75
2022/07/14 06:02:07;;;;;;;2.95;1.80;;;22.00;50.50;;;;;;5074140;28;20040;-78
2022/07/14 06:04:34;;;;;;;3.50;1.67;;;22.00;50.80;;;;;;5075927;28;20052;-71
2022/07/14 06:07:01;;;;;;;2.85;1.33;;;22.00;50.50;;;;;;5072168;28;20048;-72
2022/07/14 06:09:29;;;;;;;2.15;1.85;;;22.00;50.20;;;;;;5082534;28;20048;-72
2022/07/14 06:11:58;;;;;;;3.22;1.42;;;21.90;50.70;;;;;;5082672;28;20040;-69
2022/07/14 06:14:25;;;;;;;5.55;2.13;;;21.90;51.30;;;;;;5066101;28;20084;-70
2022/07/14 06:16:52;;;;;;;4.45;1.60;;;21.90;50.90;;;;;;5083228;28;20493;-75
2022/07/14 06:19:21;;;;;;;3.28;2.17;;;21.90;51.40;;;;;;5080520;28;20527;-73
2022/07/14 06:21:49;;;;;;;2.35;1.30;;;21.90;51.30;;;;;;5084325;28;20048;-77
2022/07/14 06:24:16;;;;;;;8.75;1.60;;;22.00;51.20;;;;;;5083717;28;20044;-72
2022/07/14 06:26:44;;;;;;;1.48;1.23;;;22.00;51.00;;;;;;5073708;28;20048;-71
2022/07/14 06:29:12;;;;;;;1.77;1.23;;;22.10;51.10;;;;;;5075604;28;20158;-73
2022/07/14 06:31:39;;;;;;;1.77;1.50;;;22.00;51.00;;;;;;5075416;28;20062;-73
2022/07/14 06:34:06;;;;;;;1.52;1.30;;;21.90;51.20;;;;;;5073996;28;20045;-72
2022/07/14 06:36:33;;;;;;;3.33;1.30;;;21.90;51.50;;;;;;5072009;28;20044;-71
2022/07/14 06:39:01;;;;;;;1.30;1.20;;;21.80;52.00;;;;;;5081749;28;20093;-69
2022/07/14 06:41:28;;;;;;;2.80;1.45;;;21.90;53.00;;;;;;5079647;28;20047;-70
2022/07/14 06:43:55;;;;;;;1.92;1.38;;;22.00;51.90;;;;;;5074780;28;20070;-73
2022/07/14 06:46:23;;;;;;;1.30;1.20;;;22.00;51.90;;;;;;5078981;28;20059;-71
2022/07/14 06:48:50;;;;;;;3.53;1.30;;;22.00;51.40;;;;;;5077613;28;20059;-73
2022/07/14 06:51:17;;;;;;;1.77;1.58;;;22.00;52.10;;;;;;5081424;28;20044;-69
2022/07/14 06:53:44;;;;;;;3.03;1.40;;;22.10;51.90;;;;;;5078123;28;20121;-71
2022/07/14 06:56:12;;;;;;;3.35;1.48;;;22.10;51.90;;;;;;5075123;28;20047;-70
2022/07/14 06:58:39;;;;;;;3.60;1.60;;;22.00;52.20;;;;;;5077923;28;20527;-71
2022/07/14 07:01:07;;;;;;;1.77;1.23;;;21.90;52.80;;;;;;5082683;28;20063;-72
2022/07/14 07:03:34;;;;;;;1.30;1.20;;;21.90;53.00;;;;;;5077399;28;20058;-72
2022/07/14 07:08:51;;;;;;;2.05;1.50;;;21.90;53.40;;;;;;5076145;28;20055;-61
2022/07/14 07:11:18;;;;;;;1.70;1.38;;;21.90;53.70;;;;;;5071480;28;20056;-61
2022/07/14 07:13:46;;;;;;;1.45;1.35;;;21.90;53.40;;;;;;5078232;28;20049;-60
2022/07/14 07:16:13;;;;;;;2.33;1.60;;;21.80;53.80;;;;;;5076875;28;20040;-61
2022/07/14 07:18:40;;;;;;;1.70;1.60;;;21.80;54.00;;;;;;5079368;28;20051;-61
2022/07/14 07:21:12;;;;;;;2.92;1.60;;;21.70;54.30;;;;;;5079313;28;20142;-62
2022/07/14 07:23:44;;;;;;;4.32;1.75;;;21.70;54.70;;;;;;5081417;28;20043;-61
2022/07/14 07:26:12;;;;;;;2.15;1.58;;;21.60;54.70;;;;;;5079568;28;20109;-61
2022/07/14 07:28:39;;;;;;;2.08;1.70;;;21.60;55.00;;;;;;5077534;28;20102;-61
2022/07/14 07:31:06;;;;;;;1.73;1.30;;;21.60;55.20;;;;;;5075730;28;20047;-61
2022/07/14 07:33:34;;;;;;;1.67;1.55;;;21.60;55.20;;;;;;5078260;28;20101;-61
2022/07/14 07:36:02;;;;;;;1.85;1.65;;;21.60;55.30;;;;;;5079153;28;20048;-61
2022/07/14 07:38:29;;;;;;;2.22;2.03;;;21.60;55.30;;;;;;5081803;28;20077;-61
2022/07/14 07:41:00;;;;;;;2.40;2.20;;;21.60;55.60;;;;;;5080683;28;20480;-62
2022/07/14 07:43:28;;;;;;;2.08;1.67;;;21.50;55.50;;;;;;5078205;28;20044;-62
2022/07/14 07:45:55;;;;;;;2.55;1.60;;;21.50;55.40;;;;;;5074342;28;20048;-61
2022/07/14 07:48:23;;;;;;;2.72;1.90;;;21.50;55.60;;;;;;5077467;28;20135;-62
2022/07/14 07:50:50;;;;;;;3.58;1.75;;;21.50;55.80;;;;;;5075205;28;20373;-60
2022/07/14 07:53:17;;;;;;;2.97;1.80;;;21.50;56.00;;;;;;5068764;28;20048;-60
2022/07/14 07:55:45;;;;;;;2.38;1.13;;;21.50;56.00;;;;;;5074366;28;20052;-59
2022/07/14 07:58:12;;;;;;;1.80;1.60;;;21.60;56.00;;;;;;5080840;28;20039;-61
2022/07/14 08:00:39;;;;;;;2.17;1.63;;;21.60;56.20;;;;;;5076508;28;20056;-60
2022/07/14 08:03:07;;;;;;;1.83;1.73;;;21.70;55.90;;;;;;5075290;28;20052;-60
2022/07/14 08:05:34;;;;;;;1.20;1.20;;;21.70;56.10;;;;;;5079417;28;20051;-62
2022/07/14 08:08:22;;;;;;;2.70;1.80;;;21.70;56.00;;;;;;5076292;28;20063;-61
2022/07/14 08:10:51;;;;;;;1.48;1.42;;;21.70;56.00;;;;;;5076141;28;20184;-60
2022/07/14 08:13:18;;;;;;;1.45;1.35;;;21.70;56.00;;;;;;5074765;28;20055;-63
2022/07/14 08:15:45;;;;;;;2.67;1.85;;;21.80;56.10;;;;;;5078255;28;20048;-62
2022/07/14 08:18:13;;;;;;;1.85;1.40;;;21.80;56.10;;;;;;5073825;28;20109;-62
2022/07/14 08:20:41;;;;;;;1.58;1.48;;;21.80;56.00;;;;;;5077599;28;20043;-62
2022/07/14 08:23:09;;;;;;;1.58;1.40;;;21.80;56.10;;;;;;5074732;28;20051;-61
2022/07/14 08:25:36;;;;;;;1.30;1.10;;;21.80;56.10;;;;;;5075893;28;20051;-63
2022/07/14 08:28:04;;;;;;;4.30;1.55;;;21.80;56.10;;;;;;5074813;28;20408;-61
2022/07/14 08:30:31;;;;;;;1.52;1.42;;;21.80;56.30;;;;;;5073197;28;20056;-60
2022/07/14 08:32:58;;;;;;;1.38;1.27;;;21.80;56.20;;;;;;5073953;28;20048;-60
2022/07/14 08:35:27;;;;;;;1.45;1.35;;;21.80;56.20;;;;;;5072135;28;20045;-60
2022/07/14 08:37:55;;;;;;;1.27;1.17;;;21.80;56.30;;;;;;5071438;28;20098;-60
2022/07/14 08:40:25;;;;;;;2.45;1.80;;;21.80;56.30;;;;;;5072290;28;20048;-60
2022/07/14 08:42:54;;;;;;;2.47;1.53;;;21.90;56.50;;;;;;5071106;28;20133;-61
2022/07/14 08:45:25;;;;;;;2.22;1.48;;;21.80;56.50;;;;;;5073980;28;20309;-61
2022/07/14 08:47:53;;;;;;;1.48;1.38;;;21.90;56.30;;;;;;5076406;28;20040;-60
2022/07/14 08:50:23;;;;;;;1.30;1.30;;;21.90;56.10;;;;;;5077647;28;20048;-61
2022/07/14 08:52:50;;;;;;;1.50;1.40;;;22.00;55.90;;;;;;5082690;28;20052;-61
2022/07/14 08:55:19;;;;;;;1.63;1.15;;;22.00;55.70;;;;;;5079030;28;20352;-61
2022/07/14 08:57:46;;;;;;;2.78;1.30;;;22.00;55.50;;;;;;5079619;28;20137;-61
2022/07/14 09:00:17;;;;;;;2.22;1.80;;;22.00;55.60;;;;;;5079830;28;21243;-61
2022/07/14 09:02:51;;;;;;;1.65;1.33;;;22.00;55.50;;;;;;5072487;28;20105;-61
2022/07/14 09:05:41;;;;;;;5.20;2.67;;;22.00;56.00;;;;;;5068142;28;20072;-60
2022/07/14 09:08:09;;;;;;;2.15;1.50;;;22.00;55.80;;;;;;5084904;28;20488;-61
2022/07/14 09:10:38;;;;;;;2.78;1.10;;;21.90;56.00;;;;;;5080913;28;20465;-61
2022/07/14 09:13:25;;;;;;;5.38;1.65;;;21.90;55.70;;;;;;5077515;28;20556;-60
2022/07/14 09:16:23;;;;;;;3.00;2.03;;;21.90;56.20;;;;;;5081324;28;20062;-62
2022/07/14 09:19:03;;;;;;;1.63;1.52;;;21.90;56.10;;;;;;5073881;28;20066;-61
2022/07/14 09:21:32;;;;;;;6.70;1.40;;;21.90;56.00;;;;;;5083355;28;20105;-61
2022/07/14 09:23:59;;;;;;;1.40;1.30;;;21.90;56.10;;;;;;5076950;28;21313;-63
2022/07/14 09:26:27;;;;;;;1.67;1.50;;;21.90;56.00;;;;;;5076872;28;20511;-61
2022/07/14 09:28:55;;;;;;;1.50;1.40;;;21.90;56.00;;;;;;5076301;28;20044;-62
2022/07/14 09:31:30;;;;;;;3.20;1.40;;;21.90;56.10;;;;;;5080705;28;20059;-63
2022/07/14 09:34:00;;;;;;;2.10;1.45;;;21.90;56.30;;;;;;5074506;28;20531;-64
2022/07/14 09:36:32;;;;;;;1.55;1.45;;;21.90;56.20;;;;;;5085958;28;20044;-62
2022/07/14 09:39:03;;;;;;;1.45;1.35;;;21.80;56.30;;;;;;5071408;28;20204;-63
2022/07/14 09:41:35;;;;;;;1.77;1.27;;;21.80;56.50;;;;;;5071987;28;20047;-63
2022/07/14 09:44:14;;;;;;;1.48;1.38;;;21.80;56.60;;;;;;5072765;28;20055;-62
2022/07/14 09:46:51;;;;;;;2.15;1.38;;;21.80;56.60;;;;;;5078771;28;20040;-63
2022/07/14 09:49:21;;;;;;;2.47;1.73;;;21.90;56.60;;;;;;5070152;28;20142;-62
2022/07/14 09:52:03;;;;;;;2.08;1.63;;;21.80;56.60;;;;;;5076636;28;20481;-62
2022/07/14 09:54:49;;;;;;;1.58;1.48;;;21.80;56.50;;;;;;5080889;28;20064;-60
2022/07/14 09:57:26;;;;;;;1.58;1.48;;;21.80;56.60;;;;;;5075901;28;20040;-60
2022/07/14 09:59:58;;;;;;;1.67;1.52;;;21.80;56.40;;;;;;5080058;28;20059;-60
2022/07/14 10:02:29;;;;;;;1.52;1.40;;;21.80;56.30;;;;;;5078020;28;20124;-60
2022/07/14 10:05:07;;;;;;;1.20;1.20;;;21.80;56.20;;;;;;5076689;28;20093;-60
2022/07/14 10:07:44;;;;;;;1.52;1.38;;;21.80;55.80;;;;;;5075591;28;20048;-59
2022/07/14 10:10:13;;;;;;;2.88;1.20;;;21.80;55.50;;;;;;5078504;28;20040;-60
2022/07/14 10:12:42;;;;;;;2.05;1.85;;;21.90;55.30;;;;;;5062916;28;20052;-60
2022/07/14 10:15:12;;;;;;;3.72;1.58;;;21.80;55.30;;;;;;5081732;28;20160;-60
2022/07/14 10:17:41;;;;;;;1.55;1.45;;;21.80;55.10;;;;;;5075150;28;20110;-60
2022/07/14 10:20:11;;;;;;;1.80;1.10;;;21.80;55.00;;;;;;5075885;28;20048;-59
2022/07/14 10:22:43;;;;;;;1.42;1.30;;;21.70;55.00;;;;;;5075307;28;20131;-59
2022/07/14 10:25:10;;;;;;;1.40;1.30;;;21.70;55.10;;;;;;5076798;28;20044;-59
2022/07/14 10:27:41;;;;;;;3.78;1.08;;;21.70;54.90;;;;;;5076921;28;20143;-59
2022/07/14 10:30:09;;;;;;;1.33;0.98;;;21.60;54.70;;;;;;5080716;28;20052;-61
2022/07/14 10:33:04;;;;;;;1.00;1.00;;;21.70;54.80;;;;;;5076161;28;20043;-61
2022/07/14 10:35:58;;;;;;;1.88;1.00;;;21.60;54.70;;;;;;5078306;28;20044;-62
2022/07/14 10:39:05;;;;;;;1.65;1.35;;;21.60;54.60;;;;;;5078518;28;20071;-61
2022/07/14 10:41:46;;;;;;;1.17;1.08;;;21.60;54.40;;;;;;5072126;28;20043;-61
2022/07/14 10:44:22;;;;;;;1.20;1.10;;;21.60;54.40;;;;;;5081747;28;20513;-60
2022/07/14 10:47:04;;;;;;;0.90;0.90;;;21.60;54.40;;;;;;5076528;28;20484;-61
2022/07/14 10:50:05;;;;;;;1.45;1.35;;;21.60;54.30;;;;;;5073724;28;20048;-61
2022/07/14 10:52:38;;;;;;;1.10;1.10;;;21.60;54.00;;;;;;5071244;28;20051;-61
2022/07/14 10:55:18;;;;;;;1.13;1.00;;;21.60;54.20;;;;;;5077120;28;20080;-61
2022/07/14 10:58:26;;;;;;;1.75;1.02;;;21.50;54.30;;;;;;5071368;28;20434;-61
2022/07/14 11:00:58;;;;;;;3.42;1.17;;;21.50;54.30;;;;;;5064955;28;20054;-61
2022/07/14 11:03:46;;;;;;;1.35;1.25;;;21.50;54.50;;;;;;5082987;28;20075;-60
2022/07/14 11:06:17;;;;;;;1.35;1.20;;;21.50;54.30;;;;;;5073142;28;20508;-61
2022/07/14 11:09:27;;;;;;;1.20;0.90;;;21.50;54.60;;;;;;5088322;28;20404;-61
2022/07/14 11:12:09;;;;;;;1.35;1.10;;;21.50;54.50;;;;;;5069957;28;20466;-62
2022/07/14 11:14:42;;;;;;;1.08;1.00;;;21.50;54.70;;;;;;5065138;28;20048;-61
2022/07/14 11:17:37;;;;;;;2.58;0.93;;;21.50;54.80;;;;;;5070076;28;20044;-59
2022/07/14 11:20:08;;;;;;;1.00;0.98;;;21.50;54.80;;;;;;5067218;28;20143;-60
2022/07/14 11:22:36;;;;;;;1.65;1.23;;;21.50;55.10;;;;;;5070624;28;20681;-60
2022/07/14 11:25:04;;;;;;;2.47;1.35;;;21.40;55.20;;;;;;5071755;28;20112;-60
2022/07/14 11:27:38;;;;;;;19.02;1.70;;;21.50;55.60;;;;;;5074119;28;20052;-60
2022/07/14 11:30:28;;;;;;;2.15;1.23;;;21.50;55.60;;;;;;5067399;28;20048;-60
2022/07/14 11:33:08;;;;;;;2.67;1.10;;;21.60;55.40;;;;;;5071147;28;20051;-59
2022/07/14 11:39:20;;;;;;;1.38;1.27;;;21.60;55.70;;;;;;5066925;28;20052;-61
2022/07/14 11:42:11;;;;;;;2.03;0.95;;;21.80;56.70;;;;;;5063937;28;20063;-60
2022/07/14 11:44:47;;;;;;;1.00;0.70;;;22.10;56.00;;;;;;5063741;28;20048;-63
2022/07/14 11:47:17;;;;;;;1.92;1.10;;;22.30;55.70;;;;;;5073521;28;20055;-61
2022/07/14 11:49:55;;;;;;;1.10;1.10;;;22.40;55.20;;;;;;5076862;28;20059;-59
2022/07/14 11:52:28;;;;;;;3.53;1.00;;;22.60;54.90;;;;;;5076448;28;20109;-60
2022/07/14 11:54:57;;;;;;;1.40;0.80;;;22.80;54.20;;;;;;5073234;28;20055;-60
2022/07/14 11:57:25;;;;;;;1.20;1.10;;;22.90;53.70;;;;;;5072433;28;20056;-59
2022/07/14 11:59:56;;;;;;;2.83;1.05;;;22.90;53.20;;;;;;5068123;28;20052;-59
2022/07/14 12:02:23;;;;;;;1.85;1.00;;;23.00;52.20;;;;;;5071599;28;20047;-61
2022/07/14 12:04:54;;;;;;;2.17;0.90;;;22.90;51.50;;;;;;5070654;28;20059;-59
2022/07/14 12:07:43;;;;;;;2.97;1.20;;;22.70;52.00;;;;;;5072986;28;20048;-60
2022/07/14 12:10:11;;;;;;;1.55;0.80;;;22.50;52.40;;;;;;5078122;28;20048;-59
2022/07/14 12:12:41;;;;;;;1.75;0.70;;;22.30;52.70;;;;;;5077089;28;20051;-59
2022/07/14 12:15:09;;;;;;;3.85;1.00;;;22.10;53.90;;;;;;5071379;28;20416;-59
2022/07/14 12:17:52;;;;;;;5.78;2.05;;;22.00;53.60;;;;;;5074762;28;20515;-60
2022/07/14 12:20:21;;;;;;;3.70;1.45;;;21.90;53.80;;;;;;5076817;28;20059;-59
2022/07/14 12:22:56;;;;;;;3.15;1.42;;;21.80;53.80;;;;;;5077648;28;20554;-59
2022/07/14 12:25:25;;;;;;;2.13;1.55;;;21.80;53.90;;;;;;5075341;28;20052;-60
2022/07/14 12:27:53;;;;;;;2.42;0.98;;;21.70;54.40;;;;;;5076609;28;20476;-59
2022/07/14 12:30:21;;;;;;;2.92;1.40;;;21.70;54.60;;;;;;5079676;28;20044;-60
2022/07/14 12:32:53;;;;;;;2.40;1.27;;;21.70;56.30;;;;;;5083541;28;20446;-59
2022/07/14 12:35:22;;;;;;;1.60;1.20;;;21.90;56.50;;;;;;5077816;28;20535;-59
2022/07/14 12:37:51;;;;;;;0.98;0.98;;;22.20;56.00;;;;;;5077956;28;20052;-59
2022/07/14 12:40:40;;;;;;;3.15;1.05;;;22.40;55.20;;;;;;5078928;28;20478;-60
2022/07/14 12:43:10;;;;;;;1.67;1.10;;;22.60;54.70;;;;;;5079624;28;20048;-60
2022/07/14 12:46:03;;;;;;;1.08;1.05;;;22.80;54.50;;;;;;5077859;28;20112;-59
2022/07/14 12:48:52;;;;;;;0.80;0.75;;;22.90;54.30;;;;;;5075263;28;20133;-60
2022/07/14 12:51:23;;;;;;;3.72;1.02;;;23.00;53.90;;;;;;5077348;28;20052;-60
2022/07/14 12:54:25;;;;;;;4.78;1.20;;;23.10;53.70;;;;;;5078029;28;20040;-60
2022/07/14 12:57:22;;;;;;;3.97;1.13;;;23.20;53.50;;;;;;5083258;28;20113;-60
2022/07/14 12:59:50;;;;;;;1.70;0.88;;;23.20;53.30;;;;;;5059588;28;20059;-61
2022/07/14 13:02:24;;;;;;;1.13;0.65;;;23.30;53.10;;;;;;5077468;28;20059;-59
2022/07/14 13:05:00;;;;;;;2.08;0.80;;;23.30;53.10;;;;;;5077146;28;20036;-59
2022/07/14 13:07:30;;;;;;;0.70;0.70;;;23.30;53.10;;;;;;5070109;28;20043;-59
2022/07/14 13:10:18;;;;;;;1.10;1.07;;;23.40;53.20;;;;;;5075273;28;20049;-58
2022/07/14 13:12:50;;;;;;;0.73;0.70;;;23.40;53.00;;;;;;5075627;28;20707;-59
2022/07/14 13:15:19;;;;;;;1.48;0.85;;;23.40;53.10;;;;;;5073459;28;20056;-59
2022/07/14 13:18:02;;;;;;;1.05;0.80;;;23.50;53.10;;;;;;5068758;28;20048;-60